Acushnet, Massachusetts
Current Conditions -  °F | °C
As of 7:53 PM on Wednesday 22 Oct 2014 (Local Time) from KEWB Reporting Station
Light Rain Light Rain  
Wind Chill: 56°   Ceiling: 500
Heat Index: 56°   Visibility: 6mi
Dew Point: 55°   Wind: 18mph
Humidity: 97%   Direction: 30°NNE
Pressure: 29.7"   Gusts: 35mph
Location:  41.68°N, 70.91°W
Report Text: KEWB 222353Z 03016G30KT 6SM -RA BR OVC005 13/13 A2970 RMK AO2 PK WND 03030/2330 SLP057 P0003 60013 T01330128 10139 20117 56031
Loading
Personal Weather Stations






























Interactive Weather Map
Tropical Storm Tracking
New forecast layout! Learn more

10-Day Weather Forecast

Advertisements
Track Severe Weather on mobile